Warning: Javascript must be enabled to use all the features on this page!


Page Loading - Please Wait...

Click to hideNews Bulletins
  • Explore the NEW USGS National Water Dashboard interactive map to access real-time water data from over 13,500 stations nationwide.
  • Full News RSS icon
  • USGS has scheduled planned maintenance to our IT infrastructure, starting Tuesday, June 28, 2022, from 8:00-10:00am Eastern Daylight Time (EDT). During the maintenance period, there will be a short interruption in the availability of the most recent time-series data. Any backlog will be made available following conclusion of the scheduled maintenance.

Peak Streamflow for the Nation

USGS 07287404 HARLAND CREEK NR HOWARD, MS

Holmes County, Mississippi
Hydrologic Unit Code 08030206
Latitude  33°06'06", Longitude  90°10'24" NAD27
Drainage area 62.1  square miles
Contributing drainage area 62.1  square miles
Gage datum 133 feet above NGVD29
Output formats
Table
Graph
Tab-separated file
peakfq (watstore) format
Reselect output format
Water
Year
Date Gage
Height
(feet)
Stream-
flow
(cfs)
1987 1987-03-18 21.36 7,440
1988 1987-11-16 19.79 5,840
1989 1989-05-05 19.75 5,800
1990 1990-05-27 18.70 5,760
1991 1991-04-29 22.08 5,920
1992 1991-12-02 20.13 4,860
1993 1993-04-30 21.32 5,490
1994 1994-02-10 21.76 5,740
1995 1995-01-18 22.95 6,420
1996 1996-04-23 20.21 4,900
1997 1997-03-02 22.55 6,1906
1998 1997-12-24 16.65 3,2106
1999 1999-01-29 20.26 4,9306
2000 2000-04-03 22.41 6,1106
2001 2001-04-05 18.63 4,1106
2003 2003-04-07 19.17 4,3706
2004 2004-05-15 17.71 3,6806
2005 2005-04-06 17.57 3,6206
2006 2006-02-23 15.754 2,8304,6
2007 2006-10-17 21.89 5,8106
2008 2008-05-15 19.40 4,4906
2009 2009-05-06 21.47 4,0306
2010 2009-10-12 21.07 3,8506
2011 2011-03-09 20.91 3,7706
2012 2012-04-17 20.07 4,0506
2013 2013-03-24 16.60 2,2006
2014 2014-04-07 22.68 6,0006
2015 2015 15.774,Bm 2,8404,6,Bm
2016 2016-03-11 18.72 3,2106
2017 2017-04-03 17.98 2,8306
2018 2018-02-26 19.22 3,5206
2019 2019-07-16 20.51 4,3806
2020 2020-02-11 22.25 5,6006
2021 2021-06-11 20.80 4,5806
?
  Peak Gage-Height Qualification Codes.
?
  Peak Streamflow Qualification Codes.